Welcome to Northern Hawkes Bay. New Zealand.
PWS Header
      nz Flag



Hit Counter


W3C Valid W3C Valid logo


    Wairoa

Select any of the Stations below to visit their websites.










Historic Data from Weather Underground
Select the location of interest below. Wairoa is the default. Please have patience, this Data is slow to load in.
Northern Hawkes Bay Historical Data
Daily Summary for May 6, 2017 Units:  English    Metric   Both
« Previous Day
Next Day »
Daily Weekly Monthly Yearly Custom
  High: Low: Average:
Temperature: 63.1 °F 40.5 °F 50.2 °F
Dew Point: 49.6 °F 40.3 °F 45 °F
Humidity: 99% 56% 84%
Wind Speed: 10.7mph 0mph 3.5mph
Wind Gust: 14.5mph - -
Wind- - WNW
Pressure: 30.4 in 30.3 in -
Precipitation: 0 in    
Historical Graphs
 
 
Tabular Data for May 6, 2017
Time Temperature Dew Point Pressure Wind Wind Speed Wind Gust Humidity Rainfall Rate (Hourly) solar
00:03 43.3 °F 42.3 °F 30.3 in NW 1.6 mph 3.8 mph 96% 0 in 0 W/m2
00:08 43.3 °F 42.3 °F 30.3 in NW 1.6 mph 3.1 mph 96% 0 in 0 W/m2
00:13 43.2 °F 42.1 °F 30.3 in NNW 2.2 mph 3.8 mph 96% 0 in 0 W/m2
00:18 43.2 °F 42.4 °F 30.3 in NNW 2.2 mph 3.8 mph 97% 0 in 0 W/m2
00:23 43 °F 42.3 °F 30.3 in NNW 3.1 mph 3.8 mph 97% 0 in 0 W/m2
00:28 43 °F 42.3 °F 30.3 in NW 2.2 mph 3.8 mph 97% 0 in 0 W/m2
00:33 43 °F 42.3 °F 30.3 in NW 3.1 mph 4.5 mph 97% 0 in 0 W/m2
00:38 43 °F 42.3 °F 30.3 in NNW 3.1 mph 6 mph 97% 0 in 0 W/m2
00:43 42.8 °F 42.1 °F 30.3 in NW 3.1 mph 6 mph 97% 0 in 0 W/m2
00:48 42.8 °F 42.1 °F 30.3 in NNW 3.8 mph 5.4 mph 97% 0 in 0 W/m2
00:53 42.8 °F 42.1 °F 30.3 in NNW 3.1 mph 5.4 mph 97% 0 in 0 W/m2
00:58 42.6 °F 42.4 °F 30.3 in NW 2.2 mph 5.4 mph 99% 0 in 0 W/m2
01:03 42.4 °F 42.3 °F 30.3 in NNW 3.1 mph 5.4 mph 99% 0 in 0 W/m2
01:08 42.4 °F 42.3 °F 30.3 in NW 3.1 mph 5.4 mph 99% 0 in 0 W/m2
01:13 42.4 °F 42.3 °F 30.3 in NW 3.1 mph 6 mph 99% 0 in 0 W/m2
01:18 42.6 °F 42.4 °F 30.3 in NW 3.8 mph 6.9 mph 99% 0 in 0 W/m2
01:23 42.6 °F 42.4 °F 30.3 in NW 3.8 mph 6.9 mph 99% 0 in 0 W/m2
01:28 42.6 °F 42.4 °F 30.3 in NW 3.8 mph 7.6 mph 99% 0 in 0 W/m2
01:33 42.4 °F 42.3 °F 30.3 in NNW 4.5 mph 7.6 mph 99% 0 in 0 W/m2
01:38 42.4 °F 42.3 °F 30.3 in NNW 4.5 mph 6.9 mph 99% 0 in 0 W/m2
01:43 42.4 °F 42.3 °F 30.3 in NNW 3.8 mph 6 mph 99% 0 in 0 W/m2
01:48 42.3 °F 42.1 °F 30.3 in NNW 3.1 mph 6 mph 99% 0 in 0 W/m2
01:53 42.3 °F 42.1 °F 30.3 in NNW 3.1 mph 6 mph 99% 0 in 0 W/m2
01:58 42.3 °F 42.1 °F 30.3 in NNW 2.2 mph 6 mph 99% 0 in 0 W/m2
02:03 42.3 °F 42.1 °F 30.3 in NW 2.2 mph 5.4 mph 99% 0 in 0 W/m2
02:08 42.3 °F 42.1 °F 30.3 in NW 3.1 mph 5.4 mph 99% 0 in 0 W/m2
02:13 42.3 °F 42.1 °F 30.3 in NW 3.1 mph 4.5 mph 99% 0 in 0 W/m2
02:18 42.3 °F 42.1 °F 30.3 in NNW 3.8 mph 4.5 mph 99% 0 in 0 W/m2
02:23 42.1 °F 41.7 °F 30.3 in NNW 2.2 mph 5.4 mph 99% 0 in 0 W/m2
02:28 42.1 °F 41.7 °F 30.3 in NNW 2.2 mph 5.4 mph 99% 0 in 0 W/m2
02:33 41.9 °F 41.5 °F 30.3 in NNW 3.1 mph 4.5 mph 99% 0 in 0 W/m2
02:38 41.9 °F 41.5 °F 30.3 in NNW 4.5 mph 5.4 mph 99% 0 in 0 W/m2
02:43 41.7 °F 41.5 °F 30.3 in NW 3.1 mph 5.4 mph 99% 0 in 0 W/m2
02:48 41.7 °F 41.5 °F 30.3 in NW 3.1 mph 5.4 mph 99% 0 in 0 W/m2
02:53 41.5 °F 41.4 °F 30.3 in NW 3.1 mph 5.4 mph 99% 0 in 0 W/m2
02:58 41.7 °F 41.5 °F 30.3 in NW 3.1 mph 6 mph 99% 0 in 0 W/m2
03:03 41.7 °F 41.5 °F 30.3 in NW 3.8 mph 6 mph 99% 0 in 0 W/m2
03:08 41.7 °F 41.5 °F 30.3 in NW 3.1 mph 6 mph 99% 0 in 0 W/m2
03:13 41.7 °F 41.5 °F 30.3 in NW 3.1 mph 6 mph 99% 0 in 0 W/m2
03:18 41.5 °F 41.4 °F 30.3 in NW 3.1 mph 5.4 mph 99% 0 in 0 W/m2
03:23 41.5 °F 41.4 °F 30.3 in NW 3.8 mph 6.9 mph 99% 0 in 0 W/m2
03:28 41.4 °F 41.2 °F 30.3 in NW 2.2 mph 6.9 mph 99% 0 in 0 W/m2
03:33 41.4 °F 41.2 °F 30.3 in NW 2.2 mph 5.4 mph 99% 0 in 0 W/m2
03:38 41.4 °F 41.2 °F 30.3 in NW 2.2 mph 6 mph 99% 0 in 0 W/m2
03:43 41.4 °F 41.2 °F 30.3 in NW 2.2 mph 6 mph 99% 0 in 0 W/m2
03:48 41.4 °F 41.2 °F 30.3 in NW 2.2 mph 5.4 mph 99% 0 in 0 W/m2
03:53 41.2 °F 40.8 °F 30.3 in NW 3.1 mph 5.4 mph 99% 0 in 0 W/m2
03:58 41.2 °F 40.8 °F 30.3 in NNW 3.1 mph 5.4 mph 99% 0 in 0 W/m2
04:03 41 °F 40.6 °F 30.3 in NNW 4.5 mph 6 mph 99% 0 in 0 W/m2
04:08 41 °F 40.6 °F 30.3 in NW 2.2 mph 6 mph 99% 0 in 0 W/m2
04:13 41 °F 40.6 °F 30.3 in NW 3.1 mph 6 mph 99% 0 in 0 W/m2
04:18 41 °F 40.6 °F 30.3 in NNW 3.1 mph 5.4 mph 99% 0 in 0 W/m2
04:23 41 °F 40.6 °F 30.3 in NNW 2.2 mph 5.4 mph 99% 0 in 0 W/m2
04:28 40.8 °F 40.6 °F 30.3 in Calm   5.4 mph 99% 0 in 0 W/m2
04:33 40.8 °F 40.6 °F 30.3 in NNW 2.2 mph 5.4 mph 99% 0 in 0 W/m2
04:38 40.8 °F 40.6 °F 30.3 in NNW 2.2 mph 4.5 mph 99% 0 in 0 W/m2
04:43 40.8 °F 40.6 °F 30.3 in NW 3.8 mph 7.6 mph 99% 0 in 0 W/m2
04:48 40.8 °F 40.6 °F 30.3 in NW 4.5 mph 7.6 mph 99% 0 in 0 W/m2
04:53 41 °F 40.6 °F 30.3 in NNW 4.5 mph 7.6 mph 99% 0 in 0 W/m2
04:58 40.8 °F 40.6 °F 30.3 in NW 4.5 mph 7.6 mph 99% 0 in 0 W/m2
05:03 41 °F 40.6 °F 30.3 in NW 4.5 mph 7.6 mph 99% 0 in 0 W/m2
05:08 41 °F 40.6 °F 30.3 in NNW 3.1 mph 7.6 mph 99% 0 in 0 W/m2
05:13 41 °F 40.6 °F 30.3 in NNW 3.1 mph 6.9 mph 99% 0 in 0 W/m2
05:18 41 °F 40.6 °F 30.3 in NW 4.5 mph 6.9 mph 99% 0 in 0 W/m2
05:23 41 °F 40.6 °F 30.3 in NW 2.2 mph 6.9 mph 99% 0 in 0 W/m2
05:28 41 °F 40.6 °F 30.3 in NW 3.1 mph 6 mph 99% 0 in 0 W/m2
05:33 41 °F 40.6 °F 30.3 in NNW 3.8 mph 6 mph 99% 0 in 0 W/m2
05:38 41.2 °F 40.8 °F 30.3 in NNW 4.5 mph 6.9 mph 99% 0 in 0 W/m2
05:43 41.2 °F 40.8 °F 30.3 in NNW 3.1 mph 6.9 mph 99% 0 in 0 W/m2
05:48 41.2 °F 40.8 °F 30.3 in NNW 3.8 mph 6.9 mph 99% 0 in 0 W/m2
05:53 41 °F 40.6 °F 30.3 in NNW 4.5 mph 6.9 mph 99% 0 in 0 W/m2
05:58 41 °F 40.6 °F 30.3 in NNW 3.1 mph 7.6 mph 99% 0 in 0 W/m2
06:03 41 °F 40.6 °F 30.3 in NNW 1.6 mph 7.6 mph 99% 0 in 0 W/m2
06:08 40.8 °F 40.6 °F 30.3 in NNW 2.2 mph 6 mph 99% 0 in 0 W/m2
06:13 40.8 °F 40.6 °F 30.3 in NNW 2.2 mph 5.4 mph 99% 0 in 0 W/m2
06:18 40.6 °F 40.5 °F 30.3 in NNW 1.6 mph 5.4 mph 99% 0 in 0 W/m2
06:23 40.6 °F 40.5 °F 30.3 in NNW 3.1 mph 4.5 mph 99% 0 in 0 W/m2
06:28 40.5 °F 40.3 °F 30.3 in NNW 3.8 mph 7.6 mph 99% 0 in 0 W/m2
06:33 40.5 °F 40.3 °F 30.3 in NNW 5.4 mph 7.6 mph 99% 0 in 0 W/m2
06:38 40.8 °F 40.6 °F 30.3 in NNW 4.5 mph 9.2 mph 99% 0 in 0 W/m2
06:43 41 °F 40.6 °F 30.3 in NNW 3.8 mph 9.2 mph 99% 0 in 0 W/m2
06:48 41 °F 40.6 °F 30.3 in NNW 4.5 mph 6.9 mph 99% 0 in 0 W/m2
06:53 41 °F 40.6 °F 30.3 in NNW 5.4 mph 6.9 mph 99% 0 in 1 W/m2
06:58 41 °F 40.6 °F 30.3 in NNW 3.8 mph 8.3 mph 99% 0 in 3 W/m2
07:03 41 °F 40.6 °F 30.3 in NNW 3.8 mph 8.3 mph 99% 0 in 6 W/m2
07:08 41 °F 40.6 °F 30.3 in NNW 3.8 mph 6.9 mph 99% 0 in 9 W/m2
07:13 41.2 °F 40.8 °F 30.3 in NNW 3.8 mph 6.9 mph 99% 0 in 13 W/m2
07:18 41.2 °F 40.8 °F 30.3 in NNW 3.8 mph 7.6 mph 99% 0 in 16 W/m2
07:23 41.5 °F 41.4 °F 30.3 in NNW 3.8 mph 7.6 mph 99% 0 in 48 W/m2
07:28 41.9 °F 41.5 °F 30.3 in NNW 3.1 mph 6.9 mph 99% 0 in 66 W/m2
07:33 42.3 °F 41.7 °F 30.3 in NNW 3.8 mph 6 mph 98% 0 in 81 W/m2
07:38 42.8 °F 41.7 °F 30.3 in NNW 3.1 mph 6 mph 96% 0 in 94 W/m2
07:43 43 °F 41.5 °F 30.3 in NNW 3.1 mph 9.2 mph 95% 0 in 106 W/m2
07:48 43.3 °F 41.7 °F 30.3 in NNW 4.5 mph 9.2 mph 94% 0 in 118 W/m2
07:53 43.5 °F 41.5 °F 30.3 in NNW 4.5 mph 9.2 mph 93% 0 in 130 W/m2
07:58 43.9 °F 41.7 °F 30.3 in NNW 4.5 mph 9.2 mph 92% 0 in 141 W/m2
08:03 44.2 °F 42.1 °F 30.3 in NW 5.4 mph 9.8 mph 92% 0 in 153 W/m2
08:08 44.8 °F 41.7 °F 30.3 in NNW 3.1 mph 9.8 mph 89% 0 in 164 W/m2
08:13 45.1 °F 41.7 °F 30.3 in NNW 3.8 mph 9.8 mph 88% 0 in 175 W/m2
08:18 45.5 °F 41.9 °F 30.3 in NNW 4.5 mph 9.2 mph 87% 0 in 186 W/m2
08:23 46 °F 42.1 °F 30.3 in NNW 3.1 mph 9.2 mph 86% 0 in 197 W/m2
08:28 46.6 °F 42.6 °F 30.3 in NNW 5.4 mph 8.3 mph 86% 0 in 207 W/m2
08:33 46.9 °F 42.6 °F 30.3 in NNW 4.5 mph 8.3 mph 85% 0 in 220 W/m2
08:38 47.3 °F 43 °F 30.3 in NNW 5.4 mph 8.3 mph 85% 0 in 234 W/m2
08:44 47.8 °F 43.5 °F 30.3 in NNW 6 mph 10.7 mph 85% 0 in 249 W/m2
08:49 48 °F 43.3 °F 30.3 in NNW 4.5 mph 10.7 mph 84% 0 in 261 W/m2
08:54 48.4 °F 43.5 °F 30.3 in NNW 6 mph 10.7 mph 83% 0 in 269 W/m2
08:59 48.7 °F 43.9 °F 30.3 in North 6 mph 9.8 mph 83% 0 in 278 W/m2
09:04 49.3 °F 44.1 °F 30.3 in North 3.8 mph 9.8 mph 82% 0 in 287 W/m2
09:09 49.8 °F 44.2 °F 30.3 in NNW 6 mph 9.8 mph 81% 0 in 296 W/m2
09:14 50.2 °F 44.2 °F 30.3 in NNW 1.6 mph 9.2 mph 80% 0 in 303 W/m2
09:19 51.1 °F 44.8 °F 30.3 in NNW 4.5 mph 9.2 mph 79% 0 in 309 W/m2
09:24 51.4 °F 44.8 °F 30.3 in NNW 4.5 mph 7.6 mph 78% 0 in 312 W/m2
09:29 52.2 °F 45.1 °F 30.3 in NNW 1.6 mph 7.6 mph 77% 0 in 288 W/m2
09:34 52.9 °F 45.5 °F 30.3 in NNW 4.5 mph 6.9 mph 76% 0 in 131 W/m2
09:39 52.7 °F 45 °F 30.3 in NNW 4.5 mph 7.6 mph 75% 0 in 67 W/m2
09:44 53.1 °F 45.3 °F 30.3 in NNW 3.8 mph 7.6 mph 75% 0 in 60 W/m2
09:49 53.2 °F 45.1 °F 30.3 in NNW 1.6 mph 6.9 mph 74% 0 in 58 W/m2
09:54 54 °F 45.5 °F 30.3 in NNW 3.8 mph 6.9 mph 73% 0 in 58 W/m2
09:59 55.4 °F 46.9 °F 30.3 in NNW 3.1 mph 6.9 mph 73% 0 in 58 W/m2
10:04 56.1 °F 46.9 °F 30.3 in NNW 3.1 mph 6 mph 71% 0 in 58 W/m2
10:09 56.1 °F 46.6 °F 30.3 in NNW 1.6 mph 6 mph 70% 0 in 60 W/m2
10:14 56.8 °F 47.5 °F 30.3 in Calm   6 mph 71% 0 in 78 W/m2
10:19 57.6 °F 47.5 °F 30.3 in NNW 4.5 mph 6 mph 69% 0 in 169 W/m2
10:24 57.7 °F 47.7 °F 30.3 in NW 2.2 mph 6 mph 69% 0 in 305 W/m2
10:29 58.8 °F 49.1 °F 30.3 in Calm   6 mph 70% 0 in 351 W/m2
10:34 59.9 °F 48.6 °F 30.3 in NNW 3.1 mph 5.4 mph 66% 0 in 359 W/m2
10:39 59.7 °F 48.4 °F 30.3 in NNW 3.1 mph 5.4 mph 66% 0 in 367 W/m2
10:44 60.6 °F 49.6 °F 30.3 in Calm   5.4 mph 67% 0 in 372 W/m2
10:49 61.3 °F 48.7 °F 30.3 in NW 1.6 mph 3.8 mph 63% 0 in 377 W/m2
10:54 60.8 °F 47.7 °F 30.3 in WSW 6.9 mph 11.4 mph 62% 0 in 376 W/m2
10:59 60.4 °F 47.5 °F 30.3 in WSW 4.5 mph 11.4 mph 62% 0 in 383 W/m2
11:04 60.3 °F 47.1 °F 30.3 in WSW 6 mph 12.1 mph 62% 0 in 382 W/m2
11:09 59.9 °F 46.9 °F 30.3 in WSW 4.5 mph 12.1 mph 62% 0 in 425 W/m2
11:14 59.9 °F 47.3 °F 30.3 in WSW 6 mph 13 mph 63% 0 in 275 W/m2
11:19 60.1 °F 47.5 °F 30.3 in WSW 4.5 mph 13 mph 63% 0 in 443 W/m2
11:24 60.3 °F 47.1 °F 30.3 in WSW 6 mph 13 mph 62% 0 in 325 W/m2
11:29 59.7 °F 46.8 °F 30.3 in WSW 8.3 mph 13 mph 62% 0 in 408 W/m2
11:34 59.7 °F 47.1 °F 30.3 in SW 8.3 mph 12.1 mph 63% 0 in 394 W/m2
11:39 60.4 °F 47.8 °F 30.3 in SW 7.6 mph 12.1 mph 63% 0 in 388 W/m2
11:44 60.1 °F 46.6 °F 30.3 in WSW 6.9 mph 12.1 mph 61% 0 in 385 W/m2
11:49 59.9 °F 46.4 °F 30.3 in WSW 9.8 mph 13.6 mph 61% 0 in 383 W/m2
11:54 59.9 °F 47.3 °F 30.3 in WSW 9.8 mph 13.6 mph 63% 0 in 382 W/m2
11:59 59.9 °F 47.3 °F 30.3 in SW 6.9 mph 13.6 mph 63% 0 in 380 W/m2
12:04 60.1 °F 47.5 °F 30.3 in SW 4.5 mph 11.4 mph 63% 0 in 378 W/m2
12:09 60.1 °F 46.9 °F 30.3 in WSW 9.2 mph 12.1 mph 62% 0 in 373 W/m2
12:14 60.3 °F 47.7 °F 30.3 in WSW 4.5 mph 12.1 mph 63% 0 in 372 W/m2
12:19 60.8 °F 47.7 °F 30.3 in WSW 6 mph 12.1 mph 62% 0 in 370 W/m2
12:24 60.6 °F 48 °F 30.3 in SW 6 mph 11.4 mph 63% 0 in 368 W/m2
12:29 60.6 °F 48 °F 30.3 in WSW 8.3 mph 13 mph 63% 0 in 365 W/m2
12:34 60.8 °F 47.7 °F 30.3 in WSW 5.4 mph 13 mph 62% 0 in 361 W/m2
12:35 60.8 °F 47.3 °F 30.3 in WSW 7.6 mph 13 mph 61% 0 in 359 W/m2
12:40 61 °F 46 °F 30.3 in West 9.8 mph 14.5 mph 58% 0 in 355 W/m2
12:45 60.6 °F 46.2 °F 30.3 in WSW 6.9 mph 14.5 mph 59% 0 in 352 W/m2
12:50 61 °F 46.6 °F 30.3 in SW 10.7 mph 14.5 mph 59% 0 in 349 W/m2
12:55 61.5 °F 47.5 °F 30.3 in SW 7.6 mph 14.5 mph 60% 0 in 345 W/m2
13:00 61.5 °F 46.6 °F 30.3 in WSW 10.7 mph 13 mph 58% 0 in 340 W/m2
13:06 61.9 °F 47.8 °F 30.3 in WSW 9.8 mph 13 mph 60% 0 in 332 W/m2
13:11 61.7 °F 46.2 °F 30.3 in SW 7.6 mph 12.1 mph 57% 0 in 326 W/m2
13:16 61.3 °F 46 °F 30.3 in WSW 6.9 mph 12.1 mph 57% 0 in 314 W/m2
13:21 61.7 °F 46.8 °F 30.3 in SW 5.4 mph 12.1 mph 58% 0 in 297 W/m2
13:26 61.5 °F 46.6 °F 30.3 in WSW 6.9 mph 12.1 mph 58% 0 in 271 W/m2
13:31 61.5 °F 47.5 °F 30.3 in SW 6.9 mph 12.1 mph 60% 0 in 231 W/m2
13:36 62.1 °F 47.1 °F 30.3 in SW 6 mph 11.4 mph 58% 0 in 180 W/m2
13:41 61.7 °F 46.8 °F 30.3 in SW 5.4 mph 12.1 mph 58% 0 in 122 W/m2
13:46 61.9 °F 46.9 °F 30.3 in SW 5.4 mph 12.1 mph 58% 0 in 92 W/m2
13:51 62.2 °F 47.7 °F 30.3 in SW 6 mph 11.4 mph 59% 0 in 68 W/m2
13:56 62.6 °F 47.1 °F 30.3 in SW 7.6 mph 13 mph 57% 0 in 65 W/m2
14:01 63 °F 46.9 °F 30.3 in SW 3.8 mph 13 mph 56% 0 in 65 W/m2
14:06 63.1 °F 47.7 °F 30.3 in SW 7.6 mph 13 mph 57% 0 in 65 W/m2
14:11 62.6 °F 46.8 °F 30.3 in SW 8.3 mph 13 mph 56% 0 in 66 W/m2
14:16 62.2 °F 48.2 °F 30.3 in SW 5.4 mph 13 mph 60% 0 in 68 W/m2
14:21 63.1 °F 48 °F 30.3 in WSW 6 mph 12.1 mph 58% 0 in 69 W/m2
14:26 62.2 °F 48.2 °F 30.3 in WSW 6.9 mph 13 mph 60% 0 in 70 W/m2
14:31 61.9 °F 48.7 °F 30.3 in WSW 3.8 mph 13 mph 62% 0 in 70 W/m2
14:36 62.4 °F 48.7 °F 30.3 in WSW 6.9 mph 12.1 mph 61% 0 in 70 W/m2
14:41 62.2 °F 49.1 °F 30.3 in SW 8.3 mph 10.7 mph 62% 0 in 70 W/m2
14:46 61.9 °F 48.7 °F 30.3 in SW 5.4 mph 10.7 mph 62% 0 in 69 W/m2
14:51 62.2 °F 49.1 °F 30.3 in WSW 7.6 mph 10.7 mph 62% 0 in 70 W/m2
14:56 62.2 °F 49.1 °F 30.3 in SW 6 mph 9.8 mph 62% 0 in 78 W/m2
15:01 61.3 °F 48.7 °F 30.3 in SW 3.8 mph 10.7 mph 63% 0 in 121 W/m2
15:06 61.7 °F 48.9 °F 30.3 in SW 6 mph 10.7 mph 63% 0 in 146 W/m2
15:11 61.5 °F 48.7 °F 30.3 in WSW 6 mph 9.8 mph 63% 0 in 181 W/m2
15:16 61.9 °F 48.7 °F 30.3 in WSW 5.4 mph 9.8 mph 62% 0 in 180 W/m2
15:21 62.2 °F 49.1 °F 30.3 in WSW 6.9 mph 8.3 mph 62% 0 in 173 W/m2
15:26 62.2 °F 49.1 °F 30.3 in WSW 5.4 mph 8.3 mph 62% 0 in 164 W/m2
15:31 62.2 °F 49.1 °F 30.3 in WSW 4.5 mph 8.3 mph 62% 0 in 154 W/m2
15:36 62.6 °F 48.9 °F 30.3 in WSW 3.8 mph 8.3 mph 61% 0 in 145 W/m2
15:41 63 °F 49.3 °F 30.3 in WSW 3.1 mph 6.9 mph 61% 0 in 133 W/m2
15:46 62.8 °F 49.1 °F 30.3 in WSW 4.5 mph 6.9 mph 61% 0 in 119 W/m2
15:51 62.8 °F 49.1 °F 30.3 in SW 3.1 mph 6.9 mph 61% 0 in 106 W/m2
15:56 63 °F 49.3 °F 30.3 in SW 4.5 mph 6.9 mph 61% 0 in 93 W/m2
16:01 62.6 °F 48.9 °F 30.3 in SW 3.1 mph 6.9 mph 61% 0 in 79 W/m2
16:06 62.4 °F 49.3 °F 30.3 in SW 3.1 mph 6.9 mph 62% 0 in 63 W/m2
16:11 62.2 °F 49.5 °F 30.3 in SW 2.2 mph 6.9 mph 63% 0 in 55 W/m2
16:16 62.8 °F 49.1 °F 30.3 in WSW 3.1 mph 6 mph 61% 0 in 49 W/m2
16:21 62.4 °F 49.3 °F 30.3 in WSW 2.2 mph 6 mph 62% 0 in 48 W/m2
16:26 62.2 °F 49.1 °F 30.3 in SW 2.2 mph 6 mph 62% 0 in 50 W/m2
16:31 62.4 °F 49.3 °F 30.3 in SW 2.2 mph 4.5 mph 62% 0 in 49 W/m2
16:36 62.6 °F 49.5 °F 30.3 in WSW 0.7 mph 3.8 mph 62% 0 in 47 W/m2
16:41 62.6 °F 48.9 °F 30.3 in WSW 0.7 mph 3.1 mph 61% 0 in 44 W/m2
16:46 62.6 °F 49.5 °F 30.3 in Calm   3.1 mph 62% 0 in 37 W/m2
16:51 63 °F 49.3 °F 30.3 in Calm   2.2 mph 61% 0 in 30 W/m2
16:56 62.2 °F 49.1 °F 30.3 in WNW 0.7 mph 3.1 mph 62% 0 in 22 W/m2
17:01 61 °F 48.4 °F 30.3 in NW 1.6 mph 3.1 mph 63% 0 in 13 W/m2
17:06 59.2 °F 47.8 °F 30.3 in Calm   2.2 mph 66% 0 in 9 W/m2
17:11 57.9 °F 47.8 °F 30.3 in Calm   2.2 mph 69% 0 in 6 W/m2
17:16 57 °F 48 °F 30.3 in Calm     72% 0 in 3 W/m2
17:21 56.3 °F 47.8 °F 30.3 in Calm     73% 0 in 0 W/m2
17:26 55.8 °F 48 °F 30.3 in Calm     75% 0 in 0 W/m2
17:31 55.2 °F 47.8 °F 30.3 in Calm   1.6 mph 76% 0 in 0 W/m2
17:36 54.7 °F 47.7 °F 30.3 in Calm   1.6 mph 77% 0 in 0 W/m2
17:41 54.1 °F 47.5 °F 30.3 in Calm   1.6 mph 78% 0 in 0 W/m2
17:46 53.6 °F 47.7 °F 30.3 in Calm   1.6 mph 80% 0 in 0 W/m2
17:51 53.2 °F 47.8 °F 30.3 in Calm   1.6 mph 82% 0 in 0 W/m2
17:56 52.7 °F 47.7 °F 30.3 in Calm     83% 0 in 0 W/m2
18:01 52.5 °F 47.8 °F 30.3 in Calm     84% 0 in 0 W/m2
18:06 52.2 °F 47.5 °F 30.3 in Calm     84% 0 in 0 W/m2
18:12 51.8 °F 47.5 °F 30.3 in Calm   1.6 mph 85% 0 in 0 W/m2
18:17 51.6 °F 47.8 °F 30.4 in North 0.7 mph 3.8 mph 87% 0 in 0 W/m2
18:22 51.6 °F 48.2 °F 30.4 in Calm   3.8 mph 88% 0 in 0 W/m2
18:27 51.4 °F 48.4 °F 30.3 in Calm   1.6 mph 89% 0 in 0 W/m2
18:32 51.3 °F 48 °F 30.4 in Calm     89% 0 in 0 W/m2
18:37 50.9 °F 47.8 °F 30.4 in Calm     89% 0 in 0 W/m2
18:42 50.7 °F 47.7 °F 30.4 in Calm     89% 0 in 0 W/m2
18:47 50.4 °F 47.5 °F 30.4 in Calm   2.2 mph 90% 0 in 0 W/m2
18:52 50 °F 47.1 °F 30.3 in Calm   2.2 mph 90% 0 in 0 W/m2
18:57 49.8 °F 47.3 °F 30.4 in Calm     91% 0 in 0 W/m2
19:02 49.3 °F 47.1 °F 30.4 in Calm   1.6 mph 92% 0 in 0 W/m2
19:07 48.9 °F 46.8 °F 30.4 in Calm   1.6 mph 92% 0 in 0 W/m2
19:12 48.7 °F 46.8 °F 30.4 in NW 1.6 mph 3.1 mph 93% 0 in 0 W/m2
19:17 48.7 °F 47.1 °F 30.4 in Calm   3.1 mph 94% 0 in 0 W/m2
19:22 48.7 °F 47.1 °F 30.4 in Calm   3.1 mph 94% 0 in 0 W/m2
19:27 48.7 °F 47.1 °F 30.4 in NNW 2.2 mph 3.1 mph 94% 0 in 0 W/m2
19:32 48.6 °F 46.9 °F 30.4 in Calm   4.5 mph 94% 0 in 0 W/m2
19:37 48.6 °F 47.1 °F 30.4 in Calm   4.5 mph 95% 0 in 0 W/m2
19:42 48.4 °F 46.9 °F 30.4 in Calm   3.1 mph 95% 0 in 0 W/m2
19:48 48.2 °F 46.8 °F 30.4 in NNW 1.6 mph 3.8 mph 95% 0 in 0 W/m2
19:53 48.2 °F 46.8 °F 30.4 in NNW 3.1 mph 4.5 mph 95% 0 in 0 W/m2
19:58 48.4 °F 46.9 °F 30.4 in NNW 3.8 mph 5.4 mph 95% 0 in 0 W/m2
20:02 48.6 °F 47.1 °F 30.4 in NNW 2.2 mph 6 mph 95% 0 in 0 W/m2
20:08 48.9 °F 47.7 °F 30.4 in NNW 5.4 mph 7.6 mph 95% 0 in 0 W/m2
20:13 49.3 °F 47.8 °F 30.4 in NNW 5.4 mph 7.6 mph 95% 0 in 0 W/m2
20:18 49.3 °F 47.8 °F 30.4 in NNW 3.1 mph 7.6 mph 95% 0 in 0 W/m2
20:24 49.1 °F 47.5 °F 30.4 in NNW 2.2 mph 6.9 mph 94% 0 in 0 W/m2
20:28 48.9 °F 47.3 °F 30.4 in NNW 1.6 mph 6 mph 94% 0 in 0 W/m2
20:34 48.6 °F 46.9 °F 30.4 in NNW 2.2 mph 3.8 mph 94% 0 in 0 W/m2
20:39 48.4 °F 46.8 °F 30.4 in NW 2.2 mph 3.8 mph 94% 0 in 0 W/m2
20:43 48.2 °F 46.6 °F 30.4 in NW 3.1 mph 4.5 mph 94% 0 in 0 W/m2
20:49 48 °F 46.8 °F 30.4 in NNW 2.2 mph 5.4 mph 95% 0 in 0 W/m2
20:54 48 °F 46.8 °F 30.4 in NNW 3.1 mph 6.9 mph 95% 0 in 0 W/m2
20:59 48.2 °F 46.8 °F 30.4 in NNW 0.7 mph 6.9 mph 95% 0 in 0 W/m2
21:03 48.2 °F 46.8 °F 30.4 in NNW 3.8 mph 6 mph 95% 0 in 0 W/m2
21:09 48.2 °F 46.8 °F 30.4 in NNW 3.1 mph 6 mph 95% 0 in 0 W/m2
21:14 48 °F 46.9 °F 30.4 in NNW 2.2 mph 6 mph 96% 0 in 0 W/m2
21:19 47.8 °F 46.8 °F 30.4 in NNW 3.1 mph 6 mph 96% 0 in 0 W/m2
21:24 47.8 °F 46.8 °F 30.4 in NNW 2.2 mph 6 mph 96% 0 in 0 W/m2
21:29 47.7 °F 46.6 °F 30.4 in NW 3.8 mph 5.4 mph 96% 0 in 0 W/m2
21:34 47.5 °F 46 °F 30.4 in NW 3.8 mph 5.4 mph 95% 0 in 0 W/m2
21:40 47.1 °F 45.9 °F 30.4 in NW 3.1 mph 5.4 mph 95% 0 in 0 W/m2
21:46 47.1 °F 46 °F 30.4 in NW 3.1 mph 5.4 mph 96% 0 in 0 W/m2
21:51 46.9 °F 45.9 °F 30.4 in NW 3.8 mph 5.4 mph 96% 0 in 0 W/m2
21:55 46.9 °F 45.9 °F 30.4 in NW 2.2 mph 6.9 mph 96% 0 in 0 W/m2
22:01 46.8 °F 45.7 °F 30.4 in NNW 3.8 mph 6.9 mph 96% 0 in 0 W/m2
22:06 46.8 °F 45.7 °F 30.4 in NW 3.1 mph 6 mph 96% 0 in 0 W/m2
22:11 46.6 °F 45.5 °F 30.4 in NW 3.8 mph 6 mph 96% 0 in 0 W/m2
22:15 46.4 °F 45.3 °F 30.4 in NW 3.8 mph 5.4 mph 96% 0 in 0 W/m2
22:21 46.4 °F 45.7 °F 30.4 in NW 3.1 mph 5.4 mph 97% 0 in 0 W/m2
22:27 46.2 °F 45.3 °F 30.4 in NNW 3.1 mph 6 mph 97% 0 in 0 W/m2
22:32 46.2 °F 45.3 °F 30.4 in NNW 3.1 mph 6 mph 97% 0 in 0 W/m2
22:36 46 °F 45.1 °F 30.4 in NNW 3.1 mph 6 mph 97% 0 in 0 W/m2
22:42 46 °F 45.1 °F 30.4 in NNW 3.1 mph 5.4 mph 97% 0 in 0 W/m2
22:47 45.9 °F 45.1 °F 30.4 in NW 3.8 mph 5.4 mph 97% 0 in 0 W/m2
22:51 45.9 °F 45.1 °F 30.4 in NW 2.2 mph 6 mph 97% 0 in 0 W/m2
22:57 45.7 °F 45 °F 30.4 in NW 3.1 mph 6 mph 97% 0 in 0 W/m2
23:01 45.7 °F 45 °F 30.4 in NW 3.1 mph 5.4 mph 97% 0 in 0 W/m2
23:06 45.5 °F 44.8 °F 30.4 in NNW 3.1 mph 5.4 mph 97% 0 in 0 W/m2
23:11 45.3 °F 44.4 °F 30.4 in NNW 3.8 mph 5.4 mph 97% 0 in 0 W/m2
23:17 45.3 °F 44.4 °F 30.4 in NW 3.1 mph 6 mph 97% 0 in 0 W/m2
23:21 45.3 °F 44.4 °F 30.4 in NNW 3.8 mph 6 mph 97% 0 in 0 W/m2
23:26 45.1 °F 44.2 °F 30.4 in NNW 3.8 mph 6 mph 97% 0 in 0 W/m2
23:32 45.1 °F 44.2 °F 30.4 in NW 3.1 mph 6.9 mph 97% 0 in 0 W/m2
23:38 45 °F 44.2 °F 30.4 in NNW 3.1 mph 6.9 mph 97% 0 in 0 W/m2
23:43 44.8 °F 44.1 °F 30.4 in NNW 2.2 mph 6 mph 97% 0 in 0 W/m2
23:47 44.6 °F 43.9 °F 30.4 in NW 3.1 mph 4.5 mph 97% 0 in 0 W/m2
23:52 44.6 °F 43.9 °F 30.4 in NNW 3.1 mph 5.4 mph 97% 0 in 0 W/m2
23:58 44.6 °F 43.9 °F 30.4 in NNW 3.8 mph 6 mph 97% 0 in 0 W/m2
Northern Hawkes Bay. New Zealand Historic Data
Compliments of Weather Underground - 2 mb